ENEV/EVE METAR and TAF weather

Enter ICAO airport designator
Station Type Date Time Source
ENEV METAR 2019/12/06 13:50 UTC NOAA

ENEV 061350Z 23004KT 7000 -SN FEW016 OVC030 00/M01 Q0974 RMK WIND 1400FT 14015KT


Station Type Date Time Source
ENEV Decoded METAR 2019/12/06 13:50 UTC NOAA

Evenes, Norway (ENEV) 68-31N 016-41E 26M
Dec 06, 2019 - 08:50 AM EST / 2019.12.06 1350 UTC
Wind: from the SW (230 degrees) at 5 MPH (4 KT):0
Visibility: 4 mile(s):0
Sky conditions: overcast
Weather: light snow
Temperature: 32 F (0 C)
Windchill: 26 F (-3 C):1
Dew Point: 30 F (-1 C)
Relative Humidity: 92%
Pressure (altimeter): 28.76 in. Hg (0974 hPa)
ob: ENEV 061350Z 23004KT 7000 -SN FEW016 OVC030 00/M01 Q0974 RMK WIND 1400FT 14015KT
cycle: 14

Station Type Date Time Source
ENEV TAF 2010/02/05 07:50 UTC NOAA

METAR ENEV 050750Z 14007KT 9999 FEW040 SCT055 M04/M09 Q1019

Example: see airport list